KGCN/GCN METAR and TAF weather

Enter ICAO airport designator
Station Type Date Time Source
KGCN METAR 2019/04/24 15:54 UTC NOAA

KGCN 241554Z VRB03KT 10SM CLR 16/02 A3018 RMK AO2 SLP157 T01610017


Station Type Date Time Source
KGCN Decoded METAR 2019/04/24 15:54 UTC NOAA

GRAND CANYON NATL PARK AIRPORT , AZ, United States (KGCN) 35-57N 112-09W 2016M
Apr 24, 2019 - 11:54 AM EDT / 2019.04.24 1554 UTC
Wind: Variable at 3 MPH (3 KT):0
Visibility: 10 mile(s):0
Sky conditions: clear
Temperature: 61.0 F (16.1 C)
Dew Point: 35.1 F (1.7 C)
Relative Humidity: 37%
Pressure (altimeter): 30.18 in. Hg (1022 hPa)
ob: KGCN 241554Z VRB03KT 10SM CLR 16/02 A3018 RMK AO2 SLP157 T01610017
cycle: 16

Station Type Date Time Source
KGCN TAF 2019/04/24 12:22 UTC NOAA

TAF KGCN 241120Z 2412/2512 VRB05KT P6SM SKC
FM241900 31008KT P6SM FEW070

Example: see airport list